100LL.CA
Aviation Fuel Pricing for Canadians
Please upgrade your browser - Tested with IE9, FireFox, Chrome, Safari

Fuel Airports Other Help
Prices Economy Info List METAR/TAF Kneeboard Help

Reference Airport: NORTH BATTLEFORD, SK
N 52 46 09  W 108 14 40
Provinces to show:

CYQW NORTH BATTLEFORD, SK
WEATHER
METARCYQW 221400Z AUTO 19002KT 6SM BR BKN076 OVC096 13/11 A2997 RMK SLP155 DENSITY ALT 2000FT
TAFTAF CYQW 221140Z 2212/2224 14005KT P6SM FEW050 BKN100 TEMPO 2212/2215 P6SM -SHRA BKN050 OVC100 FM221500 14005KT P6SM FEW050 SCT100 FM221800 14005KT P6SM SCT060 TEMPO 2218/2224 VRB15G25KT P6SM VCTS BKN060CB RMK FCST BASED ON AUTO OBS. NXT FCST BY 221800Z
OTHER SITES

FlightAware

FltPlan

Google Maps

SkyVector
FUEL
FBO 100LL
member
100LL
public
JETA MOGAS
Opr (2023-09-20)2.3001.950
Canada Flight Supplement - CYQW
(opens in new tab/window)


Please Send Updates!

Desktop Version ]  [ Mobile Version ]  [ Disclaimer ]